sensor_id;sensor_type;location;lat;lon;timestamp;P1;durP1;ratioP1;P2;durP2;ratioP2
6197;SDS011;3132;42.622;23.328;2023-11-21T00:02:05;10.53;;;9.93;;
6197;SDS011;3132;42.622;23.328;2023-11-21T00:04:31;11.10;;;10.47;;
6197;SDS011;3132;42.622;23.328;2023-11-21T00:06:56;10.80;;;10.00;;
6197;SDS011;3132;42.622;23.328;2023-11-21T00:09:21;11.30;;;10.60;;
6197;SDS011;3132;42.622;23.328;2023-11-21T00:11:47;9.30;;;8.83;;
6197;SDS011;3132;42.622;23.328;2023-11-21T00:14:13;10.70;;;9.83;;
6197;SDS011;3132;42.622;23.328;2023-11-21T00:16:40;9.50;;;9.07;;
6197;SDS011;3132;42.622;23.328;2023-11-21T00:19:06;11.50;;;10.90;;
6197;SDS011;3132;42.622;23.328;2023-11-21T00:21:31;11.40;;;10.90;;
6197;SDS011;3132;42.622;23.328;2023-11-21T00:23:57;11.03;;;10.37;;
6197;SDS011;3132;42.622;23.328;2023-11-21T00:26:22;9.97;;;9.57;;
6197;SDS011;3132;42.622;23.328;2023-11-21T00:28:49;10.87;;;10.37;;
6197;SDS011;3132;42.622;23.328;2023-11-21T00:31:15;10.17;;;9.63;;
6197;SDS011;3132;42.622;23.328;2023-11-21T00:33:40;10.40;;;9.70;;
6197;SDS011;3132;42.622;23.328;2023-11-21T00:36:06;9.77;;;9.30;;
6197;SDS011;3132;42.622;23.328;2023-11-21T00:38:34;10.47;;;10.00;;
6197;SDS011;3132;42.622;23.328;2023-11-21T00:41:00;9.13;;;8.60;;
6197;SDS011;3132;42.622;23.328;2023-11-21T00:43:26;9.80;;;9.40;;
6197;SDS011;3132;42.622;23.328;2023-11-21T00:45:51;9.10;;;8.47;;
6197;SDS011;3132;42.622;23.328;2023-11-21T00:48:16;9.50;;;9.10;;
6197;SDS011;3132;42.622;23.328;2023-11-21T00:50:43;9.20;;;8.60;;
6197;SDS011;3132;42.622;23.328;2023-11-21T00:53:09;9.87;;;9.47;;
6197;SDS011;3132;42.622;23.328;2023-11-21T00:55:34;9.33;;;8.90;;
6197;SDS011;3132;42.622;23.328;2023-11-21T00:58:00;9.27;;;8.97;;
6197;SDS011;3132;42.622;23.328;2023-11-21T01:00:28;10.33;;;9.83;;
6197;SDS011;3132;42.622;23.328;2023-11-21T01:02:53;10.23;;;9.83;;
6197;SDS011;3132;42.622;23.328;2023-11-21T01:05:19;9.03;;;8.73;;
6197;SDS011;3132;42.622;23.328;2023-11-21T01:07:44;9.53;;;9.13;;
6197;SDS011;3132;42.622;23.328;2023-11-21T01:10:10;10.03;;;9.63;;
6197;SDS011;3132;42.622;23.328;2023-11-21T01:12:36;11.07;;;10.47;;
6197;SDS011;3132;42.622;23.328;2023-11-21T01:15:03;10.00;;;9.37;;
6197;SDS011;3132;42.622;23.328;2023-11-21T01:17:32;9.37;;;9.03;;
6197;SDS011;3132;42.622;23.328;2023-11-21T01:19:59;9.47;;;9.10;;
6197;SDS011;3132;42.622;23.328;2023-11-21T01:22:25;10.00;;;9.60;;
6197;SDS011;3132;42.622;23.328;2023-11-21T01:24:51;8.83;;;8.53;;
6197;SDS011;3132;42.622;23.328;2023-11-21T01:27:17;9.93;;;9.43;;
6197;SDS011;3132;42.622;23.328;2023-11-21T01:29:43;8.33;;;8.00;;
6197;SDS011;3132;42.622;23.328;2023-11-21T01:32:09;10.23;;;9.53;;
6197;SDS011;3132;42.622;23.328;2023-11-21T01:34:35;10.70;;;9.70;;
6197;SDS011;3132;42.622;23.328;2023-11-21T01:37:01;9.60;;;9.03;;
6197;SDS011;3132;42.622;23.328;2023-11-21T01:39:29;9.67;;;9.13;;
6197;SDS011;3132;42.622;23.328;2023-11-21T01:41:55;9.77;;;9.37;;
6197;SDS011;3132;42.622;23.328;2023-11-21T01:44:20;10.53;;;9.80;;
6197;SDS011;3132;42.622;23.328;2023-11-21T01:46:45;9.23;;;8.83;;
6197;SDS011;3132;42.622;23.328;2023-11-21T01:49:12;10.23;;;9.73;;
6197;SDS011;3132;42.622;23.328;2023-11-21T01:51:41;10.03;;;9.63;;
6197;SDS011;3132;42.622;23.328;2023-11-21T01:54:08;9.63;;;9.23;;
6197;SDS011;3132;42.622;23.328;2023-11-21T01:56:34;10.03;;;9.43;;
6197;SDS011;3132;42.622;23.328;2023-11-21T01:58:59;10.13;;;9.63;;
6197;SDS011;3132;42.622;23.328;2023-11-21T02:01:25;9.67;;;9.13;;
6197;SDS011;3132;42.622;23.328;2023-11-21T02:03:51;10.73;;;10.03;;
6197;SDS011;3132;42.622;23.328;2023-11-21T02:06:17;10.03;;;9.53;;
6197;SDS011;3132;42.622;23.328;2023-11-21T02:08:43;10.27;;;9.57;;
6197;SDS011;3132;42.622;23.328;2023-11-21T02:11:09;11.27;;;10.47;;
6197;SDS011;3132;42.622;23.328;2023-11-21T02:13:38;10.33;;;9.80;;
6197;SDS011;3132;42.622;23.328;2023-11-21T02:16:04;9.73;;;9.13;;
6197;SDS011;3132;42.622;23.328;2023-11-21T02:18:31;11.50;;;10.80;;
6197;SDS011;3132;42.622;23.328;2023-11-21T02:20:56;10.13;;;9.63;;
6197;SDS011;3132;42.622;23.328;2023-11-21T02:23:21;11.87;;;11.13;;
6197;SDS011;3132;42.622;23.328;2023-11-21T02:25:48;10.97;;;10.33;;
6197;SDS011;3132;42.622;23.328;2023-11-21T02:28:13;11.50;;;10.80;;
6197;SDS011;3132;42.622;23.328;2023-11-21T02:30:40;11.37;;;10.63;;
6197;SDS011;3132;42.622;23.328;2023-11-21T02:33:06;10.90;;;10.30;;
6197;SDS011;3132;42.622;23.328;2023-11-21T02:35:32;20.07;;;16.03;;
6197;SDS011;3132;42.622;23.328;2023-11-21T02:37:57;19.87;;;13.17;;
6197;SDS011;3132;42.622;23.328;2023-11-21T02:40:23;15.13;;;13.73;;
6197;SDS011;3132;42.622;23.328;2023-11-21T02:42:50;14.53;;;11.93;;
6197;SDS011;3132;42.622;23.328;2023-11-21T02:45:21;15.20;;;13.47;;
6197;SDS011;3132;42.622;23.328;2023-11-21T02:47:47;13.20;;;12.00;;
6197;SDS011;3132;42.622;23.328;2023-11-21T02:50:14;12.87;;;11.50;;
6197;SDS011;3132;42.622;23.328;2023-11-21T02:52:39;12.33;;;11.40;;
6197;SDS011;3132;42.622;23.328;2023-11-21T02:55:05;11.47;;;10.60;;
6197;SDS011;3132;42.622;23.328;2023-11-21T02:57:32;10.37;;;9.77;;
6197;SDS011;3132;42.622;23.328;2023-11-21T02:59:58;9.83;;;9.33;;
6197;SDS011;3132;42.622;23.328;2023-11-21T03:02:24;9.83;;;9.23;;
6197;SDS011;3132;42.622;23.328;2023-11-21T03:04:50;8.97;;;8.57;;
6197;SDS011;3132;42.622;23.328;2023-11-21T03:07:16;8.73;;;8.43;;
6197;SDS011;3132;42.622;23.328;2023-11-21T03:09:44;9.10;;;8.80;;
6197;SDS011;3132;42.622;23.328;2023-11-21T03:12:10;9.07;;;8.57;;
6197;SDS011;3132;42.622;23.328;2023-11-21T03:14:37;9.03;;;8.53;;
6197;SDS011;3132;42.622;23.328;2023-11-21T03:17:02;8.63;;;8.23;;
6197;SDS011;3132;42.622;23.328;2023-11-21T03:19:29;9.67;;;9.20;;
6197;SDS011;3132;42.622;23.328;2023-11-21T03:21:55;8.87;;;8.57;;
6197;SDS011;3132;42.622;23.328;2023-11-21T03:24:20;8.77;;;8.37;;
6197;SDS011;3132;42.622;23.328;2023-11-21T03:26:47;10.40;;;9.80;;
6197;SDS011;3132;42.622;23.328;2023-11-21T03:29:13;10.07;;;9.57;;
6197;SDS011;3132;42.622;23.328;2023-11-21T03:31:39;10.17;;;9.57;;
6197;SDS011;3132;42.622;23.328;2023-11-21T03:34:05;9.83;;;9.33;;
6197;SDS011;3132;42.622;23.328;2023-11-21T03:36:31;10.77;;;10.07;;
6197;SDS011;3132;42.622;23.328;2023-11-21T03:38:56;10.87;;;10.37;;
6197;SDS011;3132;42.622;23.328;2023-11-21T03:41:22;12.13;;;11.30;;
6197;SDS011;3132;42.622;23.328;2023-11-21T03:43:47;11.93;;;11.13;;
6197;SDS011;3132;42.622;23.328;2023-11-21T03:46:13;10.67;;;10.00;;
6197;SDS011;3132;42.622;23.328;2023-11-21T03:48:38;10.87;;;10.23;;
6197;SDS011;3132;42.622;23.328;2023-11-21T03:51:04;11.47;;;10.63;;
6197;SDS011;3132;42.622;23.328;2023-11-21T03:53:30;9.53;;;9.03;;
6197;SDS011;3132;42.622;23.328;2023-11-21T03:55:55;10.43;;;9.93;;
6197;SDS011;3132;42.622;23.328;2023-11-21T03:58:20;9.67;;;9.17;;
6197;SDS011;3132;42.622;23.328;2023-11-21T04:00:46;23.67;;;15.47;;
6197;SDS011;3132;42.622;23.328;2023-11-21T04:03:13;24.47;;;18.33;;
6197;SDS011;3132;42.622;23.328;2023-11-21T04:05:39;18.40;;;16.40;;
6197;SDS011;3132;42.622;23.328;2023-11-21T04:08:04;14.70;;;13.17;;
6197;SDS011;3132;42.622;23.328;2023-11-21T04:10:30;14.27;;;12.83;;
6197;SDS011;3132;42.622;23.328;2023-11-21T04:12:55;13.53;;;12.53;;
6197;SDS011;3132;42.622;23.328;2023-11-21T04:15:20;11.70;;;10.90;;
6197;SDS011;3132;42.622;23.328;2023-11-21T04:17:46;12.50;;;11.27;;
6197;SDS011;3132;42.622;23.328;2023-11-21T04:20:11;12.77;;;11.83;;
6197;SDS011;3132;42.622;23.328;2023-11-21T04:22:39;13.80;;;12.53;;
6197;SDS011;3132;42.622;23.328;2023-11-21T04:25:07;14.17;;;12.80;;
6197;SDS011;3132;42.622;23.328;2023-11-21T04:27:33;11.20;;;10.50;;
6197;SDS011;3132;42.622;23.328;2023-11-21T04:29:59;10.77;;;10.07;;
6197;SDS011;3132;42.622;23.328;2023-11-21T04:32:24;10.63;;;10.13;;
6197;SDS011;3132;42.622;23.328;2023-11-21T04:34:50;9.90;;;9.20;;
6197;SDS011;3132;42.622;23.328;2023-11-21T04:37:15;9.70;;;9.30;;
6197;SDS011;3132;42.622;23.328;2023-11-21T04:39:41;10.10;;;9.60;;
6197;SDS011;3132;42.622;23.328;2023-11-21T04:42:06;9.60;;;9.00;;
6197;SDS011;3132;42.622;23.328;2023-11-21T04:44:32;9.80;;;9.17;;
6197;SDS011;3132;42.622;23.328;2023-11-21T04:46:57;10.10;;;9.67;;
6197;SDS011;3132;42.622;23.328;2023-11-21T04:49:22;10.20;;;9.37;;
6197;SDS011;3132;42.622;23.328;2023-11-21T04:51:48;11.17;;;10.27;;
6197;SDS011;3132;42.622;23.328;2023-11-21T04:54:13;13.00;;;12.10;;
6197;SDS011;3132;42.622;23.328;2023-11-21T04:56:38;11.33;;;10.60;;
6197;SDS011;3132;42.622;23.328;2023-11-21T04:59:04;10.30;;;9.80;;
6197;SDS011;3132;42.622;23.328;2023-11-21T05:01:29;8.67;;;8.37;;
6197;SDS011;3132;42.622;23.328;2023-11-21T05:03:55;10.07;;;9.57;;
6197;SDS011;3132;42.622;23.328;2023-11-21T05:06:22;10.77;;;10.03;;
6197;SDS011;3132;42.622;23.328;2023-11-21T05:08:48;10.40;;;9.43;;
6197;SDS011;3132;42.622;23.328;2023-11-21T05:11:27;11.13;;;10.17;;
6197;SDS011;3132;42.622;23.328;2023-11-21T05:13:53;10.03;;;9.50;;
6197;SDS011;3132;42.622;23.328;2023-11-21T05:16:21;9.83;;;9.43;;
6197;SDS011;3132;42.622;23.328;2023-11-21T05:18:47;9.63;;;9.23;;
6197;SDS011;3132;42.622;23.328;2023-11-21T05:21:12;9.50;;;8.87;;
6197;SDS011;3132;42.622;23.328;2023-11-21T05:23:37;9.67;;;9.27;;
6197;SDS011;3132;42.622;23.328;2023-11-21T05:26:03;10.27;;;9.77;;
6197;SDS011;3132;42.622;23.328;2023-11-21T05:28:28;10.20;;;9.70;;
6197;SDS011;3132;42.622;23.328;2023-11-21T05:30:54;13.27;;;10.33;;
6197;SDS011;3132;42.622;23.328;2023-11-21T05:33:20;10.43;;;9.83;;
6197;SDS011;3132;42.622;23.328;2023-11-21T05:35:45;9.83;;;9.33;;
6197;SDS011;3132;42.622;23.328;2023-11-21T05:38:11;10.33;;;9.70;;
6197;SDS011;3132;42.622;23.328;2023-11-21T05:40:37;9.63;;;8.93;;
6197;SDS011;3132;42.622;23.328;2023-11-21T05:43:02;10.77;;;10.07;;
6197;SDS011;3132;42.622;23.328;2023-11-21T05:45:27;11.37;;;10.73;;
6197;SDS011;3132;42.622;23.328;2023-11-21T05:47:54;15.50;;;9.70;;
6197;SDS011;3132;42.622;23.328;2023-11-21T05:50:20;9.83;;;9.10;;
6197;SDS011;3132;42.622;23.328;2023-11-21T05:52:46;10.03;;;9.40;;
6197;SDS011;3132;42.622;23.328;2023-11-21T05:55:12;10.37;;;9.40;;
6197;SDS011;3132;42.622;23.328;2023-11-21T05:57:38;10.33;;;9.53;;
6197;SDS011;3132;42.622;23.328;2023-11-21T06:00:12;10.27;;;9.33;;
6197;SDS011;3132;42.622;23.328;2023-11-21T06:02:50;10.63;;;9.73;;
6197;SDS011;3132;42.622;23.328;2023-11-21T06:05:17;10.67;;;10.17;;
6197;SDS011;3132;42.622;23.328;2023-11-21T06:07:44;11.50;;;10.57;;
6197;SDS011;3132;42.622;23.328;2023-11-21T06:10:10;12.47;;;11.57;;
6197;SDS011;3132;42.622;23.328;2023-11-21T06:12:38;11.50;;;9.97;;
6197;SDS011;3132;42.622;23.328;2023-11-21T06:15:05;9.67;;;8.97;;
6197;SDS011;3132;42.622;23.328;2023-11-21T06:17:33;10.37;;;9.57;;
6197;SDS011;3132;42.622;23.328;2023-11-21T06:20:01;10.93;;;10.33;;
6197;SDS011;3132;42.622;23.328;2023-11-21T06:22:29;13.73;;;12.57;;
6197;SDS011;3132;42.622;23.328;2023-11-21T06:24:55;16.10;;;12.53;;
6197;SDS011;3132;42.622;23.328;2023-11-21T06:27:20;15.40;;;14.03;;
6197;SDS011;3132;42.622;23.328;2023-11-21T06:29:46;20.07;;;13.87;;
6197;SDS011;3132;42.622;23.328;2023-11-21T06:32:12;15.03;;;13.13;;
6197;SDS011;3132;42.622;23.328;2023-11-21T06:34:38;17.47;;;13.93;;
6197;SDS011;3132;42.622;23.328;2023-11-21T06:37:03;18.10;;;16.17;;
6197;SDS011;3132;42.622;23.328;2023-11-21T06:39:28;21.07;;;14.30;;
6197;SDS011;3132;42.622;23.328;2023-11-21T06:41:54;23.17;;;17.47;;
6197;SDS011;3132;42.622;23.328;2023-11-21T06:44:19;25.70;;;17.60;;
6197;SDS011;3132;42.622;23.328;2023-11-21T06:46:45;20.10;;;18.00;;
6197;SDS011;3132;42.622;23.328;2023-11-21T06:49:10;20.30;;;15.93;;
6197;SDS011;3132;42.622;23.328;2023-11-21T06:51:36;19.83;;;17.37;;
6197;SDS011;3132;42.622;23.328;2023-11-21T06:54:01;28.50;;;19.23;;
6197;SDS011;3132;42.622;23.328;2023-11-21T06:56:27;27.30;;;22.57;;
6197;SDS011;3132;42.622;23.328;2023-11-21T06:58:52;28.60;;;21.90;;
6197;SDS011;3132;42.622;23.328;2023-11-21T07:01:19;36.37;;;22.67;;
6197;SDS011;3132;42.622;23.328;2023-11-21T07:03:44;31.47;;;21.90;;
6197;SDS011;3132;42.622;23.328;2023-11-21T07:06:10;35.23;;;23.37;;
6197;SDS011;3132;42.622;23.328;2023-11-21T07:08:36;30.63;;;22.43;;
6197;SDS011;3132;42.622;23.328;2023-11-21T07:11:02;30.87;;;21.67;;
6197;SDS011;3132;42.622;23.328;2023-11-21T07:13:28;30.67;;;22.70;;
6197;SDS011;3132;42.622;23.328;2023-11-21T07:15:54;37.43;;;21.20;;
6197;SDS011;3132;42.622;23.328;2023-11-21T07:18:19;34.50;;;23.83;;
6197;SDS011;3132;42.622;23.328;2023-11-21T07:20:45;33.27;;;23.63;;
6197;SDS011;3132;42.622;23.328;2023-11-21T07:23:10;28.73;;;21.50;;
6197;SDS011;3132;42.622;23.328;2023-11-21T07:25:35;35.87;;;23.23;;
6197;SDS011;3132;42.622;23.328;2023-11-21T07:28:01;35.13;;;23.93;;
6197;SDS011;3132;42.622;23.328;2023-11-21T07:30:26;40.33;;;23.87;;
6197;SDS011;3132;42.622;23.328;2023-11-21T07:32:52;30.40;;;23.17;;
6197;SDS011;3132;42.622;23.328;2023-11-21T07:35:18;30.67;;;24.70;;
6197;SDS011;3132;42.622;23.328;2023-11-21T07:37:43;33.47;;;25.90;;
6197;SDS011;3132;42.622;23.328;2023-11-21T07:40:08;31.20;;;25.13;;
6197;SDS011;3132;42.622;23.328;2023-11-21T07:42:36;30.77;;;23.87;;
6197;SDS011;3132;42.622;23.328;2023-11-21T07:45:02;41.57;;;25.93;;
6197;SDS011;3132;42.622;23.328;2023-11-21T07:47:28;39.77;;;27.17;;
6197;SDS011;3132;42.622;23.328;2023-11-21T07:49:53;39.77;;;27.37;;
6197;SDS011;3132;42.622;23.328;2023-11-21T07:52:20;45.00;;;26.70;;
6197;SDS011;3132;42.622;23.328;2023-11-21T07:54:46;39.67;;;27.40;;
6197;SDS011;3132;42.622;23.328;2023-11-21T07:57:12;35.93;;;25.83;;
6197;SDS011;3132;42.622;23.328;2023-11-21T07:59:38;42.33;;;27.47;;
6197;SDS011;3132;42.622;23.328;2023-11-21T08:02:08;32.67;;;26.80;;
6197;SDS011;3132;42.622;23.328;2023-11-21T08:04:33;38.17;;;27.10;;
6197;SDS011;3132;42.622;23.328;2023-11-21T08:07:00;45.00;;;27.23;;
6197;SDS011;3132;42.622;23.328;2023-11-21T08:09:26;40.80;;;27.87;;
6197;SDS011;3132;42.622;23.328;2023-11-21T08:11:52;38.90;;;26.33;;
6197;SDS011;3132;42.622;23.328;2023-11-21T08:14:18;38.50;;;28.03;;
6197;SDS011;3132;42.622;23.328;2023-11-21T08:16:43;38.23;;;26.83;;
6197;SDS011;3132;42.622;23.328;2023-11-21T08:19:09;37.30;;;25.93;;
6197;SDS011;3132;42.622;23.328;2023-11-21T08:21:36;41.23;;;24.43;;
6197;SDS011;3132;42.622;23.328;2023-11-21T08:24:05;38.07;;;25.53;;
6197;SDS011;3132;42.622;23.328;2023-11-21T08:26:35;28.97;;;23.20;;
6197;SDS011;3132;42.622;23.328;2023-11-21T08:29:01;29.83;;;23.53;;
6197;SDS011;3132;42.622;23.328;2023-11-21T08:31:26;29.07;;;20.53;;
6197;SDS011;3132;42.622;23.328;2023-11-21T08:33:51;27.40;;;24.50;;
6197;SDS011;3132;42.622;23.328;2023-11-21T08:36:20;27.53;;;21.00;;
6197;SDS011;3132;42.622;23.328;2023-11-21T08:38:48;25.17;;;21.70;;
6197;SDS011;3132;42.622;23.328;2023-11-21T08:41:14;25.43;;;20.47;;
6197;SDS011;3132;42.622;23.328;2023-11-21T08:43:39;26.40;;;22.03;;
6197;SDS011;3132;42.622;23.328;2023-11-21T08:46:08;24.53;;;20.13;;
6197;SDS011;3132;42.622;23.328;2023-11-21T08:48:35;25.60;;;21.63;;
6197;SDS011;3132;42.622;23.328;2023-11-21T08:51:01;26.20;;;21.13;;
6197;SDS011;3132;42.622;23.328;2023-11-21T08:53:27;27.33;;;21.93;;
6197;SDS011;3132;42.622;23.328;2023-11-21T08:55:53;29.70;;;22.70;;
6197;SDS011;3132;42.622;23.328;2023-11-21T08:58:19;31.50;;;22.33;;
6197;SDS011;3132;42.622;23.328;2023-11-21T09:00:44;25.90;;;22.60;;
6197;SDS011;3132;42.622;23.328;2023-11-21T09:03:11;32.07;;;23.50;;
6197;SDS011;3132;42.622;23.328;2023-11-21T09:05:37;42.77;;;26.73;;
6197;SDS011;3132;42.622;23.328;2023-11-21T09:08:04;38.67;;;25.93;;
6197;SDS011;3132;42.622;23.328;2023-11-21T09:10:29;37.40;;;25.47;;
6197;SDS011;3132;42.622;23.328;2023-11-21T09:12:55;33.97;;;24.87;;
6197;SDS011;3132;42.622;23.328;2023-11-21T09:15:20;34.57;;;25.20;;
6197;SDS011;3132;42.622;23.328;2023-11-21T09:17:45;48.30;;;26.13;;
6197;SDS011;3132;42.622;23.328;2023-11-21T09:20:11;33.97;;;23.77;;
6197;SDS011;3132;42.622;23.328;2023-11-21T09:22:37;32.67;;;23.93;;
6197;SDS011;3132;42.622;23.328;2023-11-21T09:25:02;35.93;;;24.30;;
6197;SDS011;3132;42.622;23.328;2023-11-21T09:27:30;43.97;;;25.17;;
6197;SDS011;3132;42.622;23.328;2023-11-21T09:29:56;37.43;;;24.47;;
6197;SDS011;3132;42.622;23.328;2023-11-21T09:32:23;36.67;;;24.10;;
6197;SDS011;3132;42.622;23.328;2023-11-21T09:34:49;36.17;;;25.03;;
6197;SDS011;3132;42.622;23.328;2023-11-21T09:37:15;35.10;;;23.67;;
6197;SDS011;3132;42.622;23.328;2023-11-21T09:39:41;32.07;;;24.63;;
6197;SDS011;3132;42.622;23.328;2023-11-21T09:42:17;44.63;;;24.20;;
6197;SDS011;3132;42.622;23.328;2023-11-21T09:44:51;42.67;;;24.03;;
6197;SDS011;3132;42.622;23.328;2023-11-21T09:47:24;36.00;;;25.33;;
6197;SDS011;3132;42.622;23.328;2023-11-21T09:49:49;36.53;;;24.97;;
6197;SDS011;3132;42.622;23.328;2023-11-21T09:52:18;32.77;;;24.53;;
6197;SDS011;3132;42.622;23.328;2023-11-21T09:54:50;41.90;;;25.27;;
6197;SDS011;3132;42.622;23.328;2023-11-21T09:57:18;40.47;;;23.77;;
6197;SDS011;3132;42.622;23.328;2023-11-21T09:59:46;30.40;;;23.17;;
6197;SDS011;3132;42.622;23.328;2023-11-21T10:02:15;31.47;;;22.73;;
6197;SDS011;3132;42.622;23.328;2023-11-21T10:04:43;34.33;;;25.33;;
6197;SDS011;3132;42.622;23.328;2023-11-21T10:07:10;42.57;;;26.07;;
6197;SDS011;3132;42.622;23.328;2023-11-21T10:09:37;30.00;;;21.17;;
6197;SDS011;3132;42.622;23.328;2023-11-21T10:12:03;30.07;;;24.57;;
6197;SDS011;3132;42.622;23.328;2023-11-21T10:14:33;29.00;;;21.50;;
6197;SDS011;3132;42.622;23.328;2023-11-21T10:17:00;37.77;;;22.17;;
6197;SDS011;3132;42.622;23.328;2023-11-21T10:19:26;27.17;;;20.40;;
6197;SDS011;3132;42.622;23.328;2023-11-21T10:21:52;26.60;;;21.63;;
6197;SDS011;3132;42.622;23.328;2023-11-21T10:24:19;23.33;;;19.43;;
6197;SDS011;3132;42.622;23.328;2023-11-21T10:26:44;28.17;;;19.93;;
6197;SDS011;3132;42.622;23.328;2023-11-21T10:29:13;23.77;;;19.90;;
6197;SDS011;3132;42.622;23.328;2023-11-21T10:31:42;23.30;;;20.50;;
6197;SDS011;3132;42.622;23.328;2023-11-21T10:34:14;27.60;;;20.80;;
6197;SDS011;3132;42.622;23.328;2023-11-21T10:36:40;29.33;;;20.93;;
6197;SDS011;3132;42.622;23.328;2023-11-21T10:39:06;28.63;;;21.43;;
6197;SDS011;3132;42.622;23.328;2023-11-21T10:41:32;29.27;;;20.97;;
6197;SDS011;3132;42.622;23.328;2023-11-21T10:43:57;36.37;;;20.70;;
6197;SDS011;3132;42.622;23.328;2023-11-21T10:46:23;37.27;;;20.83;;
6197;SDS011;3132;42.622;23.328;2023-11-21T10:48:54;21.23;;;18.30;;
6197;SDS011;3132;42.622;23.328;2023-11-21T10:51:22;21.87;;;19.20;;
6197;SDS011;3132;42.622;23.328;2023-11-21T10:53:49;25.27;;;18.30;;
6197;SDS011;3132;42.622;23.328;2023-11-21T10:56:16;23.50;;;18.20;;
6197;SDS011;3132;42.622;23.328;2023-11-21T10:58:46;22.67;;;19.03;;
6197;SDS011;3132;42.622;23.328;2023-11-21T11:01:13;26.60;;;20.00;;
6197;SDS011;3132;42.622;23.328;2023-11-21T11:03:43;21.97;;;16.83;;
6197;SDS011;3132;42.622;23.328;2023-11-21T11:06:10;19.77;;;17.30;;
6197;SDS011;3132;42.622;23.328;2023-11-21T11:08:38;24.90;;;18.43;;
6197;SDS011;3132;42.622;23.328;2023-11-21T11:11:05;19.13;;;17.03;;
6197;SDS011;3132;42.622;23.328;2023-11-21T11:13:31;31.17;;;19.67;;
6197;SDS011;3132;42.622;23.328;2023-11-21T11:16:00;24.93;;;19.67;;
6197;SDS011;3132;42.622;23.328;2023-11-21T11:18:32;22.13;;;17.73;;
6197;SDS011;3132;42.622;23.328;2023-11-21T11:21:07;20.03;;;15.93;;
6197;SDS011;3132;42.622;23.328;2023-11-21T11:23:58;19.93;;;17.40;;
6197;SDS011;3132;42.622;23.328;2023-11-21T11:29:39;19.70;;;16.47;;
6197;SDS011;3132;42.622;23.328;2023-11-21T11:33:04;18.90;;;17.10;;
6197;SDS011;3132;42.622;23.328;2023-11-21T11:37:56;34.40;;;17.80;;
6197;SDS011;3132;42.622;23.328;2023-11-21T11:40:21;24.30;;;16.30;;
6197;SDS011;3132;42.622;23.328;2023-11-21T11:42:56;27.07;;;18.50;;
6197;SDS011;3132;42.622;23.328;2023-11-21T11:45:24;23.90;;;18.20;;
6197;SDS011;3132;42.622;23.328;2023-11-21T11:47:57;23.50;;;18.63;;
6197;SDS011;3132;42.622;23.328;2023-11-21T11:50:22;22.67;;;19.40;;
6197;SDS011;3132;42.622;23.328;2023-11-21T11:52:50;24.37;;;18.70;;
6197;SDS011;3132;42.622;23.328;2023-11-21T11:55:18;25.60;;;18.23;;
6197;SDS011;3132;42.622;23.328;2023-11-21T11:57:48;20.57;;;18.37;;
6197;SDS011;3132;42.622;23.328;2023-11-21T12:00:18;29.00;;;18.00;;
6197;SDS011;3132;42.622;23.328;2023-11-21T12:02:56;23.23;;;18.93;;
6197;SDS011;3132;42.622;23.328;2023-11-21T12:05:23;30.43;;;20.30;;
6197;SDS011;3132;42.622;23.328;2023-11-21T12:07:56;30.30;;;21.03;;
6197;SDS011;3132;42.622;23.328;2023-11-21T12:10:23;25.23;;;21.07;;
6197;SDS011;3132;42.622;23.328;2023-11-21T12:13:02;33.50;;;21.50;;
6197;SDS011;3132;42.622;23.328;2023-11-21T12:15:35;34.90;;;22.53;;
6197;SDS011;3132;42.622;23.328;2023-11-21T12:18:01;29.53;;;22.00;;
6197;SDS011;3132;42.622;23.328;2023-11-21T12:20:26;27.77;;;22.20;;
6197;SDS011;3132;42.622;23.328;2023-11-21T12:22:59;30.80;;;21.73;;
6197;SDS011;3132;42.622;23.328;2023-11-21T12:25:26;25.30;;;20.20;;
6197;SDS011;3132;42.622;23.328;2023-11-21T12:27:54;36.13;;;23.27;;
6197;SDS011;3132;42.622;23.328;2023-11-21T12:30:21;29.40;;;23.87;;
6197;SDS011;3132;42.622;23.328;2023-11-21T12:32:51;32.70;;;22.90;;
6197;SDS011;3132;42.622;23.328;2023-11-21T12:35:18;28.13;;;23.10;;
6197;SDS011;3132;42.622;23.328;2023-11-21T12:37:46;37.90;;;24.63;;
6197;SDS011;3132;42.622;23.328;2023-11-21T12:40:12;29.90;;;25.20;;
6197;SDS011;3132;42.622;23.328;2023-11-21T12:42:47;40.37;;;25.83;;
6197;SDS011;3132;42.622;23.328;2023-11-21T12:47:52;34.40;;;27.93;;
6197;SDS011;3132;42.622;23.328;2023-11-21T12:50:25;31.60;;;25.63;;
6197;SDS011;3132;42.622;23.328;2023-11-21T12:53:00;33.80;;;25.90;;
6197;SDS011;3132;42.622;23.328;2023-11-21T12:55:29;33.37;;;25.90;;
6197;SDS011;3132;42.622;23.328;2023-11-21T12:57:55;38.17;;;25.97;;
6197;SDS011;3132;42.622;23.328;2023-11-21T13:00:28;31.87;;;25.57;;
6197;SDS011;3132;42.622;23.328;2023-11-21T13:02:59;37.70;;;26.00;;
6197;SDS011;3132;42.622;23.328;2023-11-21T13:07:50;33.40;;;25.17;;
6197;SDS011;3132;42.622;23.328;2023-11-21T13:10:19;43.97;;;24.80;;
6197;SDS011;3132;42.622;23.328;2023-11-21T13:12:45;32.53;;;26.47;;
6197;SDS011;3132;42.622;23.328;2023-11-21T13:15:16;33.00;;;26.30;;
6197;SDS011;3132;42.622;23.328;2023-11-21T13:17:43;41.20;;;26.37;;
6197;SDS011;3132;42.622;23.328;2023-11-21T13:20:10;37.63;;;25.27;;
6197;SDS011;3132;42.622;23.328;2023-11-21T13:22:44;40.03;;;28.03;;
6197;SDS011;3132;42.622;23.328;2023-11-21T13:25:11;32.50;;;25.77;;
6197;SDS011;3132;42.622;23.328;2023-11-21T13:27:39;35.60;;;26.77;;
6197;SDS011;3132;42.622;23.328;2023-11-21T13:30:05;34.50;;;27.40;;
6197;SDS011;3132;42.622;23.328;2023-11-21T13:32:33;31.43;;;24.77;;
6197;SDS011;3132;42.622;23.328;2023-11-21T13:34:59;30.93;;;25.80;;
6197;SDS011;3132;42.622;23.328;2023-11-21T13:37:25;31.50;;;24.53;;
6197;SDS011;3132;42.622;23.328;2023-11-21T13:39:53;34.20;;;25.97;;
6197;SDS011;3132;42.622;23.328;2023-11-21T13:42:19;33.67;;;24.37;;
6197;SDS011;3132;42.622;23.328;2023-11-21T13:44:48;36.97;;;25.57;;
6197;SDS011;3132;42.622;23.328;2023-11-21T13:47:16;36.87;;;27.07;;
6197;SDS011;3132;42.622;23.328;2023-11-21T13:49:41;34.00;;;26.70;;
6197;SDS011;3132;42.622;23.328;2023-11-21T13:52:07;42.97;;;28.60;;
6197;SDS011;3132;42.622;23.328;2023-11-21T13:54:32;41.37;;;28.47;;
6197;SDS011;3132;42.622;23.328;2023-11-21T13:56:58;41.10;;;27.27;;
6197;SDS011;3132;42.622;23.328;2023-11-21T13:59:25;39.30;;;28.40;;
6197;SDS011;3132;42.622;23.328;2023-11-21T14:01:53;35.97;;;26.40;;
6197;SDS011;3132;42.622;23.328;2023-11-21T14:04:20;38.03;;;27.70;;
6197;SDS011;3132;42.622;23.328;2023-11-21T14:07:00;47.33;;;26.37;;
6197;SDS011;3132;42.622;23.328;2023-11-21T14:09:39;36.77;;;27.33;;
6197;SDS011;3132;42.622;23.328;2023-11-21T14:12:08;39.03;;;27.57;;
6197;SDS011;3132;42.622;23.328;2023-11-21T14:14:37;37.03;;;28.23;;
6197;SDS011;3132;42.622;23.328;2023-11-21T14:17:04;42.60;;;27.33;;
6197;SDS011;3132;42.622;23.328;2023-11-21T14:19:32;44.00;;;28.37;;
6197;SDS011;3132;42.622;23.328;2023-11-21T14:21:58;35.77;;;27.13;;
6197;SDS011;3132;42.622;23.328;2023-11-21T14:24:24;47.37;;;30.63;;
6197;SDS011;3132;42.622;23.328;2023-11-21T14:26:50;37.83;;;27.53;;
6197;SDS011;3132;42.622;23.328;2023-11-21T14:29:16;50.23;;;31.00;;
6197;SDS011;3132;42.622;23.328;2023-11-21T14:31:45;40.37;;;27.80;;
6197;SDS011;3132;42.622;23.328;2023-11-21T14:34:10;45.87;;;29.43;;
6197;SDS011;3132;42.622;23.328;2023-11-21T14:36:37;41.27;;;28.77;;
6197;SDS011;3132;42.622;23.328;2023-11-21T14:39:04;41.07;;;28.83;;
6197;SDS011;3132;42.622;23.328;2023-11-21T14:41:41;39.80;;;29.20;;
6197;SDS011;3132;42.622;23.328;2023-11-21T14:44:07;44.07;;;29.73;;
6197;SDS011;3132;42.622;23.328;2023-11-21T14:46:36;38.50;;;27.93;;
6197;SDS011;3132;42.622;23.328;2023-11-21T14:49:04;47.50;;;29.93;;
6197;SDS011;3132;42.622;23.328;2023-11-21T14:51:44;57.10;;;30.97;;